WXM80 ListenWXM80 Stop

You find our weather info also at:

UK Metoffice

WeatherCloud

Weather Underground

Northeastern Weather Network

AWEKAS

Citizen Weather Observer Program (CWOP)

HAMweather, WeatherForYou, PWS Weather


Weather Underground History page Text

Daily Summary for June 29, 2016 Units:  English    Metric   Both
« Previous Day
Next Day »
Daily Weekly Monthly Yearly Custom
  High: Low: Average:
Temperature: 89.5 °F 68.7 °F 77.5 °F
Dew Point: 72.3 °F 61.1 °F 67.2 °F
Humidity: 97 % 45 % 74 %
Wind Speed: 5.1 mph 0.0 mph 1.3 mph
Wind Gust: 9.2 mph - -
Wind:- - SW
Pressure: 29.90 in 29.81 in -
Precipitation: 0.00 in    
Historical Graphs
 
 
Tabular Data for June 29, 2016
Time Temperature Dew Point Pressure Wind Wind Speed Wind Gust Humidity Rainfall Rate (Hourly)
00:05 70.8 °F 69.3 °F 29.85 in SSE 0.9 mph 3.5 mph 95 % 0.00 in
00:10 70.8 °F 69.3 °F 29.85 in SSE 0.3 mph 3.5 mph 95 % 0.00 in
00:15 70.8 °F 69.3 °F 29.84 in SE 1.0 mph 3.5 mph 95 % 0.00 in
00:20 70.8 °F 69.3 °F 29.84 in SSE 0.1 mph 1.2 mph 95 % 0.00 in
00:25 70.8 °F 69.3 °F 29.85 in WSW 1.1 mph 3.5 mph 95 % 0.00 in
00:30 70.7 °F 69.2 °F 29.84 in SW 1.1 mph 6.9 mph 95 % 0.00 in
00:36 70.7 °F 69.2 °F 29.84 in SSE 1.8 mph 4.6 mph 95 % 0.00 in
00:41 70.7 °F 69.2 °F 29.84 in SSW 0.4 mph 1.2 mph 95 % 0.00 in
00:46 70.6 °F 69.1 °F 29.84 in South 1.0 mph 3.5 mph 95 % 0.00 in
00:51 70.6 °F 69.1 °F 29.83 in SSE 0.4 mph 2.3 mph 95 % 0.00 in
00:56 70.6 °F 69.4 °F 29.83 in SSW 0.7 mph 3.5 mph 96 % 0.00 in
01:01 70.5 °F 69.3 °F 29.83 in SSW 1.1 mph 2.3 mph 96 % 0.00 in
01:06 70.5 °F 69.3 °F 29.84 in SSW 1.7 mph 3.5 mph 96 % 0.00 in
01:11 70.6 °F 69.4 °F 29.84 in SSW 0.3 mph 2.3 mph 96 % 0.00 in
01:16 70.5 °F 69.3 °F 29.84 in SW 1.6 mph 4.6 mph 96 % 0.00 in
01:21 70.5 °F 69.3 °F 29.83 in SW 1.1 mph 3.5 mph 96 % 0.00 in
01:27 70.5 °F 69.3 °F 29.83 in SSE 1.3 mph 2.3 mph 96 % 0.00 in
01:32 70.5 °F 69.3 °F 29.83 in Calm   2.3 mph 96 % 0.00 in
01:37 70.4 °F 69.2 °F 29.83 in SE 1.0 mph 3.5 mph 96 % 0.00 in
01:42 70.4 °F 69.2 °F 29.83 in SE 1.8 mph 4.6 mph 96 % 0.00 in
01:47 70.4 °F 69.2 °F 29.83 in SE 3.3 mph 5.0 mph 96 % 0.00 in
01:52 70.4 °F 69.2 °F 29.83 in SSE 3.0 mph 4.6 mph 96 % 0.00 in
01:57 70.4 °F 69.2 °F 29.83 in SE 0.9 mph 1.2 mph 96 % 0.00 in
02:02 70.4 °F 69.2 °F 29.83 in Calm   3.5 mph 96 % 0.00 in
02:07 70.4 °F 69.2 °F 29.83 in SW 0.1 mph 2.3 mph 96 % 0.00 in
02:13 70.4 °F 69.2 °F 29.83 in SSE 0.7 mph 1.2 mph 96 % 0.00 in
02:18 70.4 °F 69.2 °F 29.83 in SW 0.4 mph 2.3 mph 96 % 0.00 in
02:23 70.3 °F 69.1 °F 29.83 in WSW 0.9 mph 3.5 mph 96 % 0.00 in
02:28 70.3 °F 69.1 °F 29.83 in SSE 0.6 mph 2.0 mph 96 % 0.00 in
02:33 70.3 °F 69.1 °F 29.83 in SSE 0.6 mph 2.3 mph 96 % 0.00 in
02:38 70.2 °F 69.0 °F 29.83 in SSE 1.3 mph 5.8 mph 96 % 0.00 in
02:43 70.2 °F 69.0 °F 29.83 in SSE 0.1 mph 1.2 mph 96 % 0.00 in
02:48 70.1 °F 68.9 °F 29.83 in SSE 0.3 mph 2.0 mph 96 % 0.00 in
02:58 70.1 °F 68.9 °F 29.82 in WSW 0.8 mph   96 % 0.00 in
03:04 70.1 °F 68.9 °F 29.82 in Calm     96 % 0.00 in
03:09 70.0 °F 68.8 °F 29.82 in Calm   1.2 mph 96 % 0.00 in
03:14 70.0 °F 68.8 °F 29.82 in WSW 0.1 mph 2.3 mph 96 % 0.00 in
03:19 69.9 °F 68.7 °F 29.82 in WSW 0.8 mph 3.5 mph 96 % 0.00 in
03:24 69.9 °F 68.7 °F 29.83 in WSW 0.5 mph 2.0 mph 96 % 0.00 in
03:29 69.8 °F 68.6 °F 29.82 in WSW 0.2 mph 1.2 mph 96 % 0.00 in
03:34 69.7 °F 68.5 °F 29.82 in WSW 0.6 mph 3.5 mph 96 % 0.00 in
03:39 69.7 °F 68.5 °F 29.83 in Calm   1.2 mph 96 % 0.00 in
03:49 69.5 °F 68.3 °F 29.83 in Calm     96 % 0.00 in
04:00 69.4 °F 68.2 °F 29.82 in Calm     96 % 0.00 in
04:05 69.4 °F 68.2 °F 29.83 in Calm     96 % 0.00 in
04:10 69.3 °F 68.1 °F 29.83 in Calm   1.2 mph 96 % 0.00 in
04:15 69.2 °F 68.0 °F 29.83 in Calm     96 % 0.00 in
04:20 69.2 °F 68.0 °F 29.83 in Calm     96 % 0.00 in
04:25 69.2 °F 68.0 °F 29.82 in Calm     96 % 0.00 in
04:30 69.3 °F 68.1 °F 29.83 in Calm     96 % 0.00 in
04:35 69.2 °F 68.0 °F 29.83 in Calm   1.2 mph 96 % 0.00 in
04:40 69.2 °F 68.0 °F 29.83 in Calm     96 % 0.00 in
04:46 69.2 °F 68.0 °F 29.82 in Calm   1.2 mph 96 % 0.00 in
04:51 69.2 °F 68.0 °F 29.82 in Calm   2.3 mph 96 % 0.00 in
04:56 69.2 °F 68.0 °F 29.83 in Calm     96 % 0.00 in
05:01 69.2 °F 68.0 °F 29.82 in Calm   1.2 mph 96 % 0.00 in
05:06 69.1 °F 67.9 °F 29.82 in WSW 0.2 mph 1.2 mph 96 % 0.00 in
05:11 69.1 °F 67.9 °F 29.82 in Calm     96 % 0.00 in
05:16 69.1 °F 67.9 °F 29.82 in Calm     96 % 0.00 in
05:21 69.0 °F 67.8 °F 29.82 in Calm     96 % 0.00 in
05:26 69.0 °F 67.8 °F 29.83 in Calm     96 % 0.00 in
05:31 69.0 °F 67.8 °F 29.83 in Calm     96 % 0.00 in
05:37 69.0 °F 67.8 °F 29.83 in Calm     96 % 0.00 in
05:42 69.0 °F 67.8 °F 29.83 in Calm     96 % 0.00 in
05:47 69.0 °F 67.8 °F 29.83 in Calm     96 % 0.00 in
05:52 69.1 °F 68.2 °F 29.83 in WNW 0.9 mph 3.0 mph 97 % 0.00 in
05:57 69.1 °F 68.2 °F 29.83 in WNW 1.4 mph 3.5 mph 97 % 0.00 in
06:02 69.1 °F 67.9 °F 29.83 in Calm     96 % 0.00 in
06:07 69.1 °F 67.9 °F 29.84 in Calm     96 % 0.00 in
06:17 69.0 °F 67.8 °F 29.84 in WNW 0.6 mph 2.3 mph 96 % 0.00 in
06:22 68.9 °F 67.7 °F 29.84 in Calm     96 % 0.00 in
06:33 68.8 °F 67.6 °F 29.83 in Calm     96 % 0.00 in
06:38 68.7 °F 67.5 °F 29.83 in Calm     96 % 0.00 in
06:48 68.7 °F 67.5 °F 29.84 in WNW 0.6 mph 1.2 mph 96 % 0.00 in
06:53 68.7 °F 67.5 °F 29.84 in Calm     96 % 0.00 in
06:58 68.7 °F 67.5 °F 29.84 in Calm     96 % 0.00 in
07:03 68.7 °F 67.5 °F 29.84 in Calm   1.0 mph 96 % 0.00 in
07:08 68.7 °F 67.5 °F 29.84 in Calm     96 % 0.00 in
07:13 68.8 °F 67.6 °F 29.84 in WNW 0.5 mph 2.3 mph 96 % 0.00 in
07:19 68.9 °F 67.7 °F 29.84 in Calm   1.2 mph 96 % 0.00 in
07:24 69.1 °F 68.2 °F 29.85 in WNW 0.8 mph 3.5 mph 97 % 0.00 in
07:29 69.4 °F 68.5 °F 29.85 in WNW 0.7 mph 2.3 mph 97 % 0.00 in
07:34 69.6 °F 68.4 °F 29.85 in WNW 0.2 mph 1.2 mph 96 % 0.00 in
07:39 69.7 °F 68.5 °F 29.85 in WNW 0.5 mph 2.3 mph 96 % 0.00 in
07:44 69.8 °F 68.3 °F 29.85 in Calm     95 % 0.00 in
07:49 69.9 °F 68.4 °F 29.84 in WSW 0.2 mph 1.0 mph 95 % 0.00 in
07:54 70.1 °F 68.6 °F 29.84 in WSW 0.5 mph 1.2 mph 95 % 0.00 in
07:59 70.2 °F 68.4 °F 29.84 in WSW 0.5 mph 1.0 mph 94 % 0.00 in
08:04 70.4 °F 68.6 °F 29.84 in West 1.3 mph 3.5 mph 94 % 0.00 in
08:10 70.6 °F 68.5 °F 29.85 in West 0.3 mph 2.3 mph 93 % 0.00 in
08:15 70.8 °F 68.7 °F 29.85 in WNW 3.2 mph 4.6 mph 93 % 0.00 in
08:20 71.0 °F 68.6 °F 29.85 in West 2.0 mph 5.0 mph 92 % 0.00 in
08:25 71.2 °F 68.4 °F 29.85 in WNW 0.8 mph 3.5 mph 91 % 0.00 in
08:30 71.4 °F 68.6 °F 29.85 in WNW 1.3 mph 5.0 mph 91 % 0.00 in
08:35 71.6 °F 68.8 °F 29.85 in WNW 1.0 mph 4.0 mph 91 % 0.00 in
08:40 71.9 °F 69.1 °F 29.85 in WNW 0.3 mph 1.0 mph 91 % 0.00 in
08:45 72.2 °F 69.4 °F 29.85 in NW 1.9 mph 4.6 mph 91 % 0.00 in
08:50 72.4 °F 69.3 °F 29.85 in NW 1.2 mph 3.5 mph 90 % 0.00 in
08:55 72.6 °F 69.5 °F 29.85 in NW 1.3 mph 3.5 mph 90 % 0.00 in
09:01 72.8 °F 69.0 °F 29.85 in West 2.2 mph 3.5 mph 88 % 0.00 in
09:06 72.9 °F 69.1 °F 29.85 in North 1.2 mph 3.5 mph 88 % 0.00 in
09:11 73.0 °F 69.2 °F 29.85 in North 0.4 mph 2.3 mph 88 % 0.00 in
09:16 73.0 °F 67.9 °F 29.85 in NW 2.5 mph 3.5 mph 84 % 0.00 in
09:21 73.0 °F 67.9 °F 29.85 in West 2.0 mph 3.5 mph 84 % 0.00 in
09:26 73.2 °F 68.4 °F 29.85 in West 0.7 mph 2.3 mph 85 % 0.00 in
09:31 73.4 °F 68.6 °F 29.85 in WSW 4.0 mph 5.8 mph 85 % 0.00 in
09:36 73.6 °F 68.8 °F 29.85 in WNW 1.0 mph 4.6 mph 85 % 0.00 in
09:41 73.9 °F 68.8 °F 29.85 in WNW 1.8 mph 5.0 mph 84 % 0.00 in
09:46 74.3 °F 69.8 °F 29.85 in WNW 0.2 mph 3.5 mph 86 % 0.00 in
09:52 74.9 °F 69.7 °F 29.85 in NE 1.9 mph 5.0 mph 84 % 0.00 in
09:57 75.7 °F 70.5 °F 29.85 in NE 3.1 mph 5.8 mph 84 % 0.00 in
10:02 76.4 °F 70.5 °F 29.85 in WNW 0.9 mph 4.6 mph 82 % 0.00 in
10:07 76.9 °F 70.6 °F 29.85 in North 0.7 mph 2.3 mph 81 % 0.00 in
10:12 77.8 °F 70.4 °F 29.85 in North 2.2 mph 3.5 mph 78 % 0.00 in
10:17 78.6 °F 70.8 °F 29.84 in NNE 3.1 mph 4.6 mph 77 % 0.00 in
10:22 79.3 °F 71.5 °F 29.84 in North 2.0 mph 4.6 mph 77 % 0.00 in
10:27 80.2 °F 71.2 °F 29.85 in NNE 0.5 mph 3.0 mph 74 % 0.00 in
10:32 80.9 °F 71.4 °F 29.85 in WNW 2.6 mph 8.1 mph 73 % 0.00 in
10:37 81.7 °F 71.8 °F 29.85 in North 2.5 mph 4.0 mph 72 % 0.00 in
10:43 82.3 °F 71.5 °F 29.85 in NNE 2.4 mph 3.5 mph 70 % 0.00 in
10:48 82.9 °F 71.3 °F 29.85 in NW 1.6 mph 3.5 mph 68 % 0.00 in
10:53 83.2 °F 71.5 °F 29.85 in NW 2.7 mph 5.0 mph 68 % 0.00 in
10:58 83.3 °F 71.2 °F 29.85 in North 3.3 mph 4.6 mph 67 % 0.00 in
11:03 83.2 °F 70.7 °F 29.85 in West 0.8 mph 3.5 mph 66 % 0.00 in
11:08 83.0 °F 71.8 °F 29.85 in NW 1.6 mph 3.5 mph 69 % 0.00 in
11:13 82.8 °F 71.2 °F 29.85 in WNW 0.9 mph 1.2 mph 68 % 0.00 in
11:18 82.5 °F 71.3 °F 29.85 in NW 0.1 mph 1.0 mph 69 % 0.00 in
11:23 82.0 °F 71.2 °F 29.85 in North 2.1 mph 3.5 mph 70 % 0.00 in
11:29 82.0 °F 71.2 °F 29.85 in North 3.2 mph 5.0 mph 70 % 0.00 in
11:34 81.7 °F 71.0 °F 29.85 in NW 2.2 mph 3.5 mph 70 % 0.00 in
11:39 81.5 °F 70.8 °F 29.85 in NE 1.6 mph 3.5 mph 70 % 0.00 in
11:44 81.3 °F 71.0 °F 29.84 in WNW 2.6 mph 4.0 mph 71 % 0.00 in
11:49 81.5 °F 71.2 °F 29.84 in WNW 2.1 mph 4.6 mph 71 % 0.00 in
11:54 82.0 °F 70.8 °F 29.84 in SW 1.7 mph 3.5 mph 69 % 0.00 in
11:59 82.8 °F 72.0 °F 29.84 in North 1.6 mph 3.5 mph 70 % 0.00 in
12:04 83.6 °F 70.6 °F 29.85 in WNW 3.9 mph 5.8 mph 65 % 0.00 in
12:09 83.9 °F 70.9 °F 29.84 in West 0.3 mph 3.5 mph 65 % 0.00 in
12:14 84.5 °F 71.0 °F 29.84 in WNW 2.4 mph 4.6 mph 64 % 0.00 in
12:20 84.8 °F 71.3 °F 29.84 in WNW 1.2 mph 1.2 mph 64 % 0.00 in
12:25 85.3 °F 70.8 °F 29.84 in WNW 0.4 mph 2.3 mph 62 % 0.00 in
12:30 86.0 °F 71.9 °F 29.84 in West 1.4 mph 3.5 mph 63 % 0.00 in
12:35 86.4 °F 72.3 °F 29.84 in NW 0.3 mph 3.5 mph 63 % 0.00 in
12:40 86.9 °F 71.3 °F 29.84 in West 2.5 mph 3.5 mph 60 % 0.00 in
12:45 87.0 °F 70.9 °F 29.84 in WNW 3.3 mph 4.0 mph 59 % 0.00 in
12:50 87.1 °F 71.0 °F 29.83 in SW 1.2 mph 4.0 mph 59 % 0.00 in
12:55 87.2 °F 69.6 °F 29.83 in SSW 1.7 mph 4.6 mph 56 % 0.00 in
13:00 87.2 °F 70.6 °F 29.83 in NW 3.0 mph 5.0 mph 58 % 0.00 in
13:05 87.4 °F 70.8 °F 29.83 in NNW 2.1 mph 4.0 mph 58 % 0.00 in
13:11 87.4 °F 70.8 °F 29.83 in North 3.2 mph 4.6 mph 58 % 0.00 in
13:16 87.4 °F 70.8 °F 29.83 in NE 4.0 mph 5.8 mph 58 % 0.00 in
13:21 87.5 °F 70.4 °F 29.83 in NNE 3.7 mph 6.9 mph 57 % 0.00 in
13:26 87.4 °F 71.3 °F 29.83 in NNE 2.1 mph 3.5 mph 59 % 0.00 in
13:31 87.6 °F 70.0 °F 29.83 in NW 3.6 mph 4.6 mph 56 % 0.00 in
13:36 87.9 °F 70.8 °F 29.83 in North 1.5 mph 3.5 mph 57 % 0.00 in
13:41 88.2 °F 71.0 °F 29.83 in North 1.3 mph 4.6 mph 57 % 0.00 in
13:46 88.5 °F 70.3 °F 29.83 in WNW 2.1 mph 3.5 mph 55 % 0.00 in
13:51 88.5 °F 70.8 °F 29.83 in WNW 1.7 mph 4.6 mph 56 % 0.00 in
13:56 88.8 °F 69.5 °F 29.83 in West 3.7 mph 3.7 mph 53 % 0.00 in
14:02 89.0 °F 70.2 °F 29.82 in NE 1.0 mph 3.5 mph 54 % 0.00 in
14:07 89.1 °F 69.2 °F 29.82 in NNE 2.0 mph 5.8 mph 52 % 0.00 in
14:12 89.2 °F 68.7 °F 29.83 in WNW 2.1 mph 4.6 mph 51 % 0.00 in
14:17 89.2 °F 68.7 °F 29.83 in WNW 0.9 mph 3.5 mph 51 % 0.00 in
14:22 89.2 °F 68.7 °F 29.83 in WNW 2.1 mph 4.0 mph 51 % 0.00 in
14:27 89.2 °F 68.7 °F 29.83 in WNW 1.4 mph 3.5 mph 51 % 0.00 in
14:32 89.3 °F 69.4 °F 29.83 in NNE 2.1 mph 3.0 mph 52 % 0.00 in
14:37 89.4 °F 68.9 °F 29.83 in WNW 2.6 mph 3.5 mph 51 % 0.00 in
14:42 89.4 °F 67.7 °F 29.83 in North 2.3 mph 3.5 mph 49 % 0.00 in
14:47 89.2 °F 67.5 °F 29.82 in NE 2.9 mph 6.0 mph 49 % 0.00 in
14:53 89.1 °F 68.6 °F 29.83 in NNE 3.7 mph 5.8 mph 51 % 0.00 in
14:58 89.2 °F 69.3 °F 29.82 in WSW 1.6 mph 5.8 mph 52 % 0.00 in
15:03 89.3 °F 68.8 °F 29.83 in North 3.6 mph 4.6 mph 51 % 0.00 in
15:13 89.3 °F 67.6 °F 29.83 in NW 0.6 mph 4.0 mph 49 % 0.00 in
15:18 89.4 °F 67.1 °F 29.82 in NW 2.4 mph 5.8 mph 48 % 0.00 in
15:23 89.5 °F 66.6 °F 29.82 in WNW 3.9 mph 5.8 mph 47 % 0.00 in
15:28 89.5 °F 66.6 °F 29.83 in NE 2.8 mph 4.6 mph 47 % 0.00 in
15:33 89.3 °F 68.2 °F 29.83 in NNE 4.0 mph 5.0 mph 50 % 0.00 in
15:38 88.9 °F 67.3 °F 29.83 in NE 5.1 mph 6.9 mph 49 % 0.00 in
15:44 88.8 °F 67.2 °F 29.83 in NW 2.0 mph 4.0 mph 49 % 0.00 in
15:54 89.0 °F 66.8 °F 29.83 in NNE 4.8 mph 6.9 mph 48 % 0.00 in
15:59 88.6 °F 66.4 °F 29.83 in North 2.1 mph 5.8 mph 48 % 0.00 in
16:04 88.6 °F 66.4 °F 29.83 in WNW 1.1 mph 4.6 mph 48 % 0.00 in
16:09 88.7 °F 68.2 °F 29.83 in NNE 1.8 mph 3.5 mph 51 % 0.00 in
16:14 88.8 °F 66.6 °F 29.83 in North 3.0 mph 6.0 mph 48 % 0.00 in
16:19 88.9 °F 67.9 °F 29.83 in WNW 1.6 mph 4.0 mph 50 % 0.00 in
16:24 88.9 °F 67.3 °F 29.83 in NNW 1.5 mph 2.3 mph 49 % 0.00 in
16:29 89.0 °F 66.2 °F 29.82 in West 1.5 mph 2.3 mph 47 % 0.00 in
16:35 88.9 °F 66.1 °F 29.82 in NNE 2.9 mph 3.5 mph 47 % 0.00 in
16:40 88.6 °F 67.0 °F 29.82 in West 1.5 mph 4.6 mph 49 % 0.00 in
16:45 88.6 °F 65.8 °F 29.82 in NW 2.6 mph 8.1 mph 47 % 0.00 in
16:50 88.7 °F 64.6 °F 29.82 in WNW 2.6 mph 8.1 mph 45 % 0.00 in
16:55 88.3 °F 65.5 °F 29.83 in WNW 3.2 mph 8.1 mph 47 % 0.00 in
17:00 88.1 °F 65.3 °F 29.83 in NW 1.4 mph 6.9 mph 47 % 0.00 in
17:05 87.8 °F 65.1 °F 29.83 in WNW 3.0 mph 5.8 mph 47 % 0.00 in
17:10 87.5 °F 63.5 °F 29.82 in WNW 4.5 mph 6.9 mph 45 % 0.00 in
17:15 87.2 °F 63.9 °F 29.82 in WNW 1.8 mph 3.5 mph 46 % 0.00 in
17:20 87.1 °F 64.4 °F 29.82 in WSW 0.8 mph 3.5 mph 47 % 0.00 in
17:26 86.8 °F 63.5 °F 29.82 in West 3.9 mph 7.0 mph 46 % 0.00 in
17:31 86.3 °F 63.1 °F 29.82 in West 2.7 mph 9.2 mph 46 % 0.00 in
17:36 86.1 °F 63.5 °F 29.82 in WNW 1.4 mph 2.3 mph 47 % 0.00 in
17:41 85.8 °F 62.6 °F 29.81 in West 0.9 mph 4.6 mph 46 % 0.00 in
17:46 85.5 °F 63.0 °F 29.82 in West 2.7 mph 9.2 mph 47 % 0.00 in
17:51 85.3 °F 62.8 °F 29.82 in WNW 2.3 mph 4.6 mph 47 % 0.00 in
17:56 85.1 °F 62.6 °F 29.82 in West 3.2 mph 5.8 mph 47 % 0.00 in
18:01 84.9 °F 62.4 °F 29.81 in WNW 3.5 mph 4.6 mph 47 % 0.00 in
18:06 84.7 °F 62.8 °F 29.82 in WSW 1.7 mph 3.0 mph 48 % 0.00 in
18:11 84.5 °F 62.7 °F 29.82 in WNW 0.1 mph 3.5 mph 48 % 0.00 in
18:17 84.3 °F 63.1 °F 29.82 in WNW 1.4 mph 6.0 mph 49 % 0.00 in
18:22 84.1 °F 62.3 °F 29.82 in WNW 2.7 mph 5.0 mph 48 % 0.00 in
18:27 83.9 °F 62.7 °F 29.82 in WNW 0.3 mph 3.5 mph 49 % 0.00 in
18:32 83.8 °F 62.0 °F 29.82 in WNW 3.6 mph 4.6 mph 48 % 0.00 in
18:37 83.6 °F 62.4 °F 29.83 in West 2.2 mph 3.5 mph 49 % 0.00 in
18:42 83.4 °F 62.2 °F 29.83 in WNW 1.4 mph 4.0 mph 49 % 0.00 in
18:47 83.3 °F 61.6 °F 29.83 in NW 2.4 mph 4.6 mph 48 % 0.00 in
18:52 83.2 °F 62.6 °F 29.83 in West 0.4 mph 2.3 mph 50 % 0.00 in
18:57 83.0 °F 61.9 °F 29.83 in WNW 1.1 mph 4.6 mph 49 % 0.00 in
19:02 82.8 °F 62.8 °F 29.83 in WNW 2.5 mph 4.6 mph 51 % 0.00 in
19:08 82.7 °F 63.3 °F 29.83 in West 0.8 mph 3.5 mph 52 % 0.00 in
19:13 82.5 °F 63.6 °F 29.83 in West 0.6 mph 3.5 mph 53 % 0.00 in
19:18 82.3 °F 63.5 °F 29.83 in SW 0.9 mph 3.5 mph 53 % 0.00 in
19:23 82.1 °F 63.3 °F 29.84 in West 2.4 mph 4.0 mph 53 % 0.00 in
19:28 81.9 °F 63.6 °F 29.83 in WSW 0.1 mph 2.3 mph 54 % 0.00 in
19:33 81.7 °F 63.4 °F 29.84 in NW 0.9 mph 3.0 mph 54 % 0.00 in
19:38 81.5 °F 63.8 °F 29.83 in West 0.7 mph 2.3 mph 55 % 0.00 in
19:43 81.3 °F 63.6 °F 29.83 in NW 1.3 mph 3.5 mph 55 % 0.00 in
19:48 81.0 °F 63.3 °F 29.84 in WNW 1.0 mph 1.2 mph 55 % 0.00 in
19:59 80.4 °F 62.8 °F 29.84 in NW 0.7 mph 3.5 mph 55 % 0.00 in
20:09 79.7 °F 62.6 °F 29.84 in WNW 1.4 mph 3.5 mph 56 % 0.00 in
20:19 79.1 °F 62.6 °F 29.84 in WNW 2.4 mph 3.5 mph 57 % 0.00 in
20:24 78.7 °F 62.7 °F 29.84 in West 0.8 mph 3.5 mph 58 % 0.00 in
20:34 78.2 °F 62.7 °F 29.85 in NW 0.9 mph 3.5 mph 59 % 0.00 in
20:39 78.0 °F 63.0 °F 29.85 in Calm     60 % 0.00 in
20:45 77.7 °F 62.2 °F 29.85 in West 0.9 mph 1.0 mph 59 % 0.00 in
20:50 77.5 °F 62.0 °F 29.85 in West 0.3 mph 2.0 mph 59 % 0.00 in
20:55 77.3 °F 61.9 °F 29.85 in West 0.6 mph 3.5 mph 59 % 0.00 in
21:00 77.0 °F 61.6 °F 29.85 in SW 0.4 mph 3.5 mph 59 % 0.00 in
21:05 76.8 °F 61.4 °F 29.86 in SW 0.3 mph 2.3 mph 59 % 0.00 in
21:10 76.7 °F 61.3 °F 29.86 in SW 0.7 mph 2.3 mph 59 % 0.00 in
21:15 76.5 °F 61.1 °F 29.86 in SW 0.2 mph 1.2 mph 59 % 0.00 in
21:20 76.3 °F 61.4 °F 29.86 in WNW 0.5 mph 2.0 mph 60 % 0.00 in
21:25 76.2 °F 61.8 °F 29.87 in NW 0.7 mph 2.3 mph 61 % 0.00 in
21:30 76.0 °F 62.0 °F 29.87 in NW 0.4 mph 1.2 mph 62 % 0.00 in
21:36 75.8 °F 62.8 °F 29.88 in NW 0.3 mph 1.2 mph 64 % 0.00 in
21:41 75.7 °F 63.1 °F 29.88 in West 0.7 mph 2.3 mph 65 % 0.00 in
21:46 75.4 °F 63.7 °F 29.88 in Calm   1.2 mph 67 % 0.00 in
21:51 75.2 °F 63.5 °F 29.88 in West 0.4 mph 1.2 mph 67 % 0.00 in
21:56 74.9 °F 63.2 °F 29.88 in WNW 1.2 mph 4.0 mph 67 % 0.00 in
22:01 74.7 °F 63.0 °F 29.88 in SW 0.4 mph 2.3 mph 67 % 0.00 in
22:06 74.5 °F 62.8 °F 29.88 in Calm     67 % 0.00 in
22:11 74.2 °F 63.0 °F 29.88 in Calm     68 % 0.00 in
22:16 74.0 °F 63.2 °F 29.88 in SW 0.9 mph 2.3 mph 69 % 0.00 in
22:21 73.8 °F 63.0 °F 29.88 in SW 0.6 mph 1.2 mph 69 % 0.00 in
22:27 73.5 °F 62.7 °F 29.89 in West 0.5 mph 3.5 mph 69 % 0.00 in
22:32 73.3 °F 62.5 °F 29.89 in WSW 0.1 mph 1.2 mph 69 % 0.00 in
22:37 73.1 °F 62.3 °F 29.89 in WSW 1.4 mph 3.5 mph 69 % 0.00 in
22:42 73.0 °F 62.6 °F 29.89 in WSW 0.8 mph 2.3 mph 70 % 0.00 in
22:47 72.8 °F 62.8 °F 29.89 in WSW 1.0 mph 2.3 mph 71 % 0.00 in
22:52 72.7 °F 62.8 °F 29.89 in WSW 0.5 mph 2.3 mph 71 % 0.00 in
22:57 72.5 °F 63.0 °F 29.89 in SW 1.7 mph 3.0 mph 72 % 0.00 in
23:02 72.3 °F 63.2 °F 29.89 in SW 0.4 mph 3.5 mph 73 % 0.00 in
23:07 72.2 °F 63.1 °F 29.89 in WSW 2.9 mph 3.5 mph 73 % 0.00 in
23:12 72.0 °F 62.9 °F 29.89 in WSW 1.3 mph 2.3 mph 73 % 0.00 in
23:18 71.9 °F 63.2 °F 29.89 in West 0.2 mph 3.5 mph 74 % 0.00 in
23:23 71.8 °F 63.1 °F 29.89 in West 0.1 mph 2.3 mph 74 % 0.00 in
23:28 71.7 °F 62.6 °F 29.90 in West 0.5 mph 3.5 mph 73 % 0.00 in
23:33 71.6 °F 62.5 °F 29.90 in WSW 1.8 mph 3.5 mph 73 % 0.00 in
23:38 71.5 °F 62.4 °F 29.90 in WSW 1.1 mph 2.3 mph 73 % 0.00 in
23:43 71.4 °F 62.3 °F 29.90 in West 0.9 mph 2.0 mph 73 % 0.00 in
23:48 71.4 °F 62.3 °F 29.90 in West 0.5 mph 3.5 mph 73 % 0.00 in
23:53 71.4 °F 63.1 °F 29.90 in West 0.1 mph 2.3 mph 75 % 0.00 in
23:58 71.4 °F 63.4 °F 29.90 in SW 0.6 mph 3.5 mph 76 % 0.00 in
Crab Meadow Weather
Compliments of Weather Underground - 2.75 mb

Script developed by  Jim McMurry - jmcmurry@mwt.net Adapted for the template by  Wim van der Kuil - Leuven-Template.eu

Clouds: Partly sunny and partly cloudy indicate the same amount of cloud coverage - about 50 percent. Partly sunny is used during the daytime, and partly cloudy is used at night when there is no sun.